Time;durP1;ratioP1;P1;durP2;ratioP2;P2;SDS_P1;SDS_P2;PMS_P1;PMS_P2;Temp;Humidity;BMP_temperature;BMP_pressure;BME280_temperature;BME280_humidity;BME280_pressure;Samples;Min_cycle;Max_cycle;Signal;HPM_P1;HPM_P2
2023/08/27 00:00:50;;;;;;;15.13;13.00;;;27.10;99.50;;;;;;4817069;29;20298;-81
2023/08/27 00:03:16;;;;;;;14.00;12.60;;;27.10;99.60;;;;;;4816688;29;20473;-86
2023/08/27 00:05:42;;;;;;;21.20;13.40;;;27.10;99.70;;;;;;4820306;29;20220;-86
2023/08/27 00:08:08;;;;;;;15.40;13.80;;;27.10;99.80;;;;;;4806706;29;20694;-86
2023/08/27 00:10:34;;;;;;;22.70;14.10;;;27.10;99.90;;;;;;4817550;29;20474;-86
2023/08/27 00:13:00;;;;;;;15.27;13.30;;;27.10;99.90;;;;;;4817288;29;20436;-86
2023/08/27 00:15:25;;;;;;;14.90;13.40;;;27.10;99.90;;;;;;4819514;29;20225;-81
2023/08/27 00:17:51;;;;;;;16.10;13.87;;;27.00;99.90;;;;;;4817691;29;20224;-80
2023/08/27 00:20:17;;;;;;;15.17;13.67;;;27.00;99.90;;;;;;4819428;29;20803;-80
2023/08/27 00:22:42;;;;;;;19.13;14.50;;;27.00;99.90;;;;;;4818546;29;20386;-80
2023/08/27 00:25:08;;;;;;;17.33;13.33;;;27.00;99.90;;;;;;4818630;29;20441;-81
2023/08/27 00:27:34;;;;;;;19.87;14.40;;;27.00;99.90;;;;;;4817283;29;20213;-87
2023/08/27 00:30:00;;;;;;;14.63;13.20;;;27.00;99.90;;;;;;4816861;29;20488;-80
2023/08/27 00:32:31;;;;;;;22.80;14.00;;;26.90;99.90;;;;;;4817049;29;20193;-81
2023/08/27 00:34:57;;;;;;;19.23;13.23;;;26.90;99.90;;;;;;4816906;29;20453;-86
2023/08/27 00:37:22;;;;;;;13.97;12.57;;;26.90;99.90;;;;;;4818408;29;20455;-81
2023/08/27 00:39:48;;;;;;;18.03;13.90;;;26.90;99.90;;;;;;4816929;29;20301;-80
2023/08/27 00:42:14;;;;;;;17.43;13.80;;;26.90;99.90;;;;;;4816784;29;20243;-86
2023/08/27 00:44:39;;;;;;;17.17;14.27;;;26.90;99.90;;;;;;4818893;29;20233;-86
2023/08/27 00:47:05;;;;;;;19.23;14.47;;;26.80;99.90;;;;;;4819447;29;20182;-80
2023/08/27 00:49:32;;;;;;;16.13;14.00;;;26.80;99.90;;;;;;4819928;29;20190;-81
2023/08/27 00:51:59;;;;;;;20.20;14.23;;;26.80;99.90;;;;;;4818176;29;20792;-86
2023/08/27 00:54:26;;;;;;;15.93;14.27;;;26.80;99.90;;;;;;4818609;29;20441;-86
2023/08/27 00:56:51;;;;;;;14.80;12.73;;;26.70;99.90;;;;;;4818582;29;20465;-80
2023/08/27 00:59:17;;;;;;;17.30;14.70;;;26.70;99.90;;;;;;4817993;29;20457;-80
2023/08/27 01:01:43;;;;;;;17.47;14.63;;;26.60;99.90;;;;;;4818361;29;20182;-86
2023/08/27 01:04:09;;;;;;;17.40;14.57;;;26.50;99.90;;;;;;4819042;29;20617;-85
2023/08/27 01:06:35;;;;;;;16.30;14.03;;;26.50;99.90;;;;;;4818158;29;20776;-80
2023/08/27 01:09:10;;;;;;;18.93;15.30;;;26.50;99.90;;;;;;4819387;29;20402;-80
2023/08/27 01:11:42;;;;;;;16.93;15.10;;;26.40;99.90;;;;;;4819576;29;21086;-80
2023/08/27 01:14:10;;;;;;;16.47;14.53;;;26.40;99.90;;;;;;4818968;29;20425;-85
2023/08/27 01:16:37;;;;;;;18.87;14.80;;;26.40;99.90;;;;;;4817619;29;21214;-87
2023/08/27 01:19:15;;;;;;;16.70;14.53;;;26.40;99.90;;;;;;4817596;29;20429;-87
2023/08/27 01:21:44;;;;;;;18.30;16.40;;;26.40;99.90;;;;;;4819210;29;20429;-87
2023/08/27 01:24:10;;;;;;;16.50;14.80;;;26.30;99.90;;;;;;4817613;29;20473;-86
2023/08/27 01:26:55;;;;;;;17.30;15.00;;;26.30;99.90;;;;;;4818985;29;21112;-86
2023/08/27 01:29:41;;;;;;;19.73;15.73;;;26.20;99.90;;;;;;4833140;29;20909;-86
2023/08/27 01:32:32;;;;;;;18.83;14.93;;;26.20;99.90;;;;;;4817474;29;20576;-87
2023/08/27 01:35:01;;;;;;;17.07;15.30;;;26.20;99.90;;;;;;4818948;29;20457;-86
2023/08/27 01:37:27;;;;;;;17.97;15.13;;;26.20;99.90;;;;;;4818865;29;20823;-81
2023/08/27 01:40:01;;;;;;;21.23;16.03;;;26.20;99.90;;;;;;4818839;29;20444;-86
2023/08/27 01:42:26;;;;;;;17.53;15.73;;;26.20;99.90;;;;;;4817548;29;20444;-80
2023/08/27 01:44:53;;;;;;;17.00;15.23;;;26.10;99.90;;;;;;4818541;29;20804;-81
2023/08/27 01:47:18;;;;;;;16.93;15.23;;;26.00;99.90;;;;;;4817022;29;20422;-81
2023/08/27 01:49:44;;;;;;;19.13;16.77;;;25.90;99.90;;;;;;4818956;29;20506;-82
2023/08/27 01:52:10;;;;;;;17.63;15.83;;;25.90;99.90;;;;;;4817070;29;20242;-87
2023/08/27 01:54:36;;;;;;;17.73;15.87;;;25.80;99.90;;;;;;4832982;29;20300;-87
2023/08/27 01:57:03;;;;;;;18.77;16.73;;;25.80;99.90;;;;;;4817338;29;20361;-82
2023/08/27 01:59:28;;;;;;;17.97;15.67;;;25.80;99.90;;;;;;4819036;29;20184;-81
2023/08/27 02:01:54;;;;;;;21.03;18.47;;;25.70;99.90;;;;;;4816166;29;20521;-87
2023/08/27 02:04:20;;;;;;;24.07;18.00;;;25.70;99.90;;;;;;4816989;29;20228;-87
2023/08/27 02:06:45;;;;;;;23.50;18.00;;;25.60;99.90;;;;;;4820010;29;20387;-86
2023/08/27 02:09:11;;;;;;;19.60;17.60;;;25.60;99.90;;;;;;4836525;29;20189;-81
2023/08/27 02:11:37;;;;;;;21.20;18.93;;;25.50;99.90;;;;;;4834896;29;20654;-80
2023/08/27 02:14:03;;;;;;;20.00;18.00;;;25.50;99.90;;;;;;4836113;29;20188;-85
2023/08/27 02:16:29;;;;;;;22.90;17.87;;;25.40;99.90;;;;;;4835068;29;20212;-87
2023/08/27 02:18:55;;;;;;;19.70;17.60;;;25.40;99.90;;;;;;4836388;29;20420;-86
2023/08/27 02:21:21;;;;;;;18.20;16.30;;;25.40;99.90;;;;;;4836365;29;20451;-87
2023/08/27 02:23:46;;;;;;;19.97;17.47;;;25.30;99.90;;;;;;4850162;29;20228;-80
2023/08/27 02:26:12;;;;;;;21.17;18.23;;;25.30;99.90;;;;;;4849824;29;20216;-87
2023/08/27 02:28:37;;;;;;;18.97;16.97;;;25.40;99.90;;;;;;4835373;29;20598;-85
2023/08/27 02:31:03;;;;;;;19.80;17.70;;;25.40;99.90;;;;;;4849374;29;20201;-87
2023/08/27 02:33:29;;;;;;;20.57;17.50;;;25.40;99.90;;;;;;4835233;29;20689;-80
2023/08/27 02:35:54;;;;;;;20.17;17.70;;;25.40;99.90;;;;;;4834833;29;20608;-80
2023/08/27 02:38:20;;;;;;;19.20;17.13;;;25.50;99.90;;;;;;4835286;29;20182;-80
2023/08/27 02:40:46;;;;;;;22.13;18.90;;;25.50;99.90;;;;;;4833867;29;20276;-86
2023/08/27 02:43:12;;;;;;;20.47;17.10;;;25.50;99.90;;;;;;4850260;29;20311;-87
2023/08/27 02:45:37;;;;;;;19.70;17.20;;;25.40;99.90;;;;;;4850059;29;20209;-80
2023/08/27 02:48:03;;;;;;;19.90;17.80;;;25.40;99.90;;;;;;4835817;29;20436;-80
2023/08/27 02:50:29;;;;;;;19.90;17.70;;;25.30;99.90;;;;;;4835106;29;20213;-81
2023/08/27 02:52:54;;;;;;;21.47;19.03;;;25.20;99.90;;;;;;4834337;29;20466;-80
2023/08/27 02:55:20;;;;;;;23.20;18.50;;;25.20;99.90;;;;;;4850050;29;20497;-87
2023/08/27 02:57:46;;;;;;;18.97;16.97;;;25.10;99.90;;;;;;4849752;29;20260;-87
2023/08/27 03:00:13;;;;;;;19.87;17.77;;;25.00;99.90;;;;;;4849736;29;20250;-80
2023/08/27 03:02:38;;;;;;;20.17;18.17;;;25.00;99.90;;;;;;4833494;29;20391;-86
2023/08/27 03:05:05;;;;;;;20.03;18.03;;;24.90;99.90;;;;;;4849217;29;21098;-81
2023/08/27 03:07:31;;;;;;;21.30;19.00;;;24.90;99.90;;;;;;4849819;29;20192;-80
2023/08/27 03:09:57;;;;;;;25.57;19.83;;;24.90;99.90;;;;;;4835591;29;20477;-86
2023/08/27 03:12:22;;;;;;;20.80;17.33;;;25.00;99.90;;;;;;4835454;29;20263;-80
2023/08/27 03:14:48;;;;;;;21.93;17.23;;;25.00;99.90;;;;;;4835463;29;20239;-86
2023/08/27 03:17:14;;;;;;;21.27;19.10;;;25.00;99.90;;;;;;4834124;29;20196;-80
2023/08/27 03:19:39;;;;;;;21.03;18.83;;;25.10;99.90;;;;;;4849568;29;20212;-80
2023/08/27 03:22:05;;;;;;;23.97;17.87;;;25.10;99.90;;;;;;4833997;29;20283;-80
2023/08/27 03:24:31;;;;;;;23.00;18.27;;;25.00;99.90;;;;;;4849792;29;20227;-86
2023/08/27 03:26:56;;;;;;;22.87;19.73;;;25.00;99.90;;;;;;4835212;29;20185;-86
2023/08/27 03:29:22;;;;;;;21.00;18.80;;;25.00;99.90;;;;;;4849424;29;20361;-87
2023/08/27 03:31:48;;;;;;;20.10;18.10;;;24.90;99.90;;;;;;4835507;29;20278;-87
2023/08/27 03:34:14;;;;;;;22.63;19.50;;;24.90;99.90;;;;;;4849070;29;20236;-80
2023/08/27 03:36:40;;;;;;;21.27;19.30;;;24.80;99.90;;;;;;4834061;29;20200;-80
2023/08/27 03:39:07;;;;;;;22.20;19.93;;;24.80;99.90;;;;;;4835103;29;20666;-81
2023/08/27 03:41:33;;;;;;;22.63;18.07;;;24.70;99.90;;;;;;4835389;29;20463;-86
2023/08/27 03:43:58;;;;;;;24.83;20.07;;;24.70;99.90;;;;;;4834720;29;20470;-80
2023/08/27 03:46:24;;;;;;;22.33;18.60;;;24.70;99.90;;;;;;4834202;29;20214;-86
2023/08/27 03:48:49;;;;;;;21.10;18.87;;;24.70;99.90;;;;;;4833670;29;20193;-80
2023/08/27 03:51:15;;;;;;;21.97;19.03;;;24.70;99.90;;;;;;4835360;29;20205;-86
2023/08/27 03:53:41;;;;;;;23.57;18.50;;;24.60;99.90;;;;;;4834807;29;20237;-80
2023/08/27 03:56:07;;;;;;;22.93;18.90;;;24.60;99.90;;;;;;4834882;29;20251;-86
2023/08/27 03:58:32;;;;;;;20.60;17.70;;;24.60;99.90;;;;;;4835157;29;20668;-80
2023/08/27 04:00:59;;;;;;;28.40;20.70;;;24.60;99.90;;;;;;4848966;29;20295;-86
2023/08/27 04:03:24;;;;;;;21.87;19.67;;;24.70;99.90;;;;;;4833507;29;20232;-80
2023/08/27 04:05:50;;;;;;;21.63;18.03;;;24.70;99.90;;;;;;4848981;29;20450;-86
2023/08/27 04:08:16;;;;;;;32.10;19.60;;;24.70;99.90;;;;;;4847797;29;20659;-80
2023/08/27 04:10:52;;;;;;;23.17;18.03;;;24.80;99.90;;;;;;4835031;29;20267;-80
2023/08/27 04:13:18;;;;;;;44.33;19.83;;;24.80;99.90;;;;;;4833322;29;21016;-80
2023/08/27 04:16:07;;;;;;;22.60;18.50;;;24.80;99.90;;;;;;4849058;29;20484;-80
2023/08/27 04:18:33;;;;;;;21.17;18.67;;;24.70;99.90;;;;;;4833600;29;20444;-87
2023/08/27 04:20:59;;;;;;;22.73;19.07;;;24.70;99.90;;;;;;4834641;29;20459;-87
2023/08/27 04:23:25;;;;;;;24.40;20.77;;;24.60;99.90;;;;;;4834429;29;20249;-80
2023/08/27 04:25:52;;;;;;;21.50;18.67;;;24.60;99.90;;;;;;4833172;29;20517;-80
2023/08/27 04:28:17;;;;;;;23.67;20.20;;;24.60;99.90;;;;;;4832607;29;20427;-86
2023/08/27 04:30:43;;;;;;;23.70;18.57;;;24.60;99.90;;;;;;4848959;29;20512;-80
2023/08/27 04:33:10;;;;;;;23.50;20.13;;;24.70;99.90;;;;;;4848667;29;20411;-80
2023/08/27 04:35:36;;;;;;;23.10;18.63;;;24.70;99.90;;;;;;4848864;29;20219;-86
2023/08/27 04:38:03;;;;;;;27.33;19.70;;;24.80;99.90;;;;;;4848364;29;20440;-80
2023/08/27 04:40:29;;;;;;;24.20;19.40;;;24.80;99.90;;;;;;4849100;29;20989;-80
2023/08/27 04:42:55;;;;;;;24.47;20.20;;;24.80;99.90;;;;;;4832951;29;20468;-80
2023/08/27 04:45:20;;;;;;;22.80;19.60;;;24.80;99.90;;;;;;4848779;29;20675;-86
2023/08/27 04:47:46;;;;;;;24.73;20.10;;;24.70;99.90;;;;;;4848044;29;20695;-86
2023/08/27 04:50:12;;;;;;;23.17;19.67;;;24.70;99.90;;;;;;4834769;29;20307;-87
2023/08/27 04:52:38;;;;;;;22.83;20.37;;;24.60;99.90;;;;;;4848322;29;20209;-86
2023/08/27 04:55:06;;;;;;;22.93;20.47;;;24.60;99.90;;;;;;4833360;29;20321;-81
2023/08/27 04:57:35;;;;;;;22.20;19.33;;;24.60;99.90;;;;;;4834751;29;20195;-79
2023/08/27 05:00:09;;;;;;;22.87;20.47;;;24.60;99.90;;;;;;4852357;29;21015;-86
2023/08/27 05:02:35;;;;;;;25.97;20.90;;;24.60;99.90;;;;;;4851807;29;20448;-80
2023/08/27 05:05:01;;;;;;;23.30;20.57;;;24.70;99.90;;;;;;4851918;29;20531;-86
2023/08/27 05:07:28;;;;;;;21.97;19.67;;;24.70;99.90;;;;;;4850625;29;20802;-86
2023/08/27 05:09:54;;;;;;;21.87;19.50;;;24.80;99.90;;;;;;4837630;29;20576;-86
2023/08/27 05:12:20;;;;;;;28.23;20.37;;;24.90;99.90;;;;;;4837159;29;20436;-80
2023/08/27 05:14:45;;;;;;;22.43;20.03;;;24.90;99.90;;;;;;4851593;29;20837;-80
2023/08/27 05:17:11;;;;;;;24.17;20.87;;;25.00;99.90;;;;;;4836162;29;20268;-80
2023/08/27 05:19:36;;;;;;;33.30;21.90;;;25.00;99.90;;;;;;4838052;29;20216;-81
2023/08/27 05:22:02;;;;;;;26.60;22.70;;;25.10;99.90;;;;;;4837104;29;20189;-86
2023/08/27 05:24:28;;;;;;;29.20;23.20;;;25.10;99.90;;;;;;4851541;29;20273;-80
2023/08/27 05:26:54;;;;;;;25.30;21.70;;;25.20;99.90;;;;;;4835870;29;20484;-80
2023/08/27 05:29:19;;;;;;;24.73;21.90;;;25.20;99.90;;;;;;4851063;29;20195;-86
2023/08/27 05:31:45;;;;;;;28.80;24.07;;;25.20;99.90;;;;;;4837567;29;20219;-87
2023/08/27 05:34:11;;;;;;;24.00;21.50;;;25.20;99.90;;;;;;4837271;29;20697;-80
2023/08/27 05:36:37;;;;;;;24.07;21.57;;;25.20;99.90;;;;;;4835958;29;20502;-81
2023/08/27 05:39:03;;;;;;;23.40;21.10;;;25.30;99.90;;;;;;4837176;29;20197;-85
2023/08/27 05:41:28;;;;;;;23.93;21.53;;;25.20;99.90;;;;;;4837216;29;20488;-87
2023/08/27 05:43:54;;;;;;;25.60;22.23;;;25.30;99.90;;;;;;4850853;29;21206;-85
2023/08/27 05:46:20;;;;;;;28.07;22.67;;;25.30;99.90;;;;;;4836984;29;20673;-80
2023/08/27 05:48:45;;;;;;;27.13;22.43;;;25.30;99.90;;;;;;4835047;29;20196;-81
2023/08/27 05:51:11;;;;;;;26.40;23.50;;;25.30;99.90;;;;;;4835681;29;20292;-87
2023/08/27 05:53:38;;;;;;;27.90;24.53;;;25.40;99.90;;;;;;4837305;29;20569;-85
2023/08/27 05:56:03;;;;;;;28.47;23.10;;;25.40;99.90;;;;;;4818544;29;20280;-80
2023/08/27 05:58:29;;;;;;;28.70;24.40;;;25.40;99.90;;;;;;4830902;29;20461;-86
2023/08/27 06:00:56;;;;;;;24.40;21.87;;;25.50;99.90;;;;;;4817308;29;20445;-86
2023/08/27 06:03:22;;;;;;;27.40;23.13;;;25.60;99.90;;;;;;4817178;29;20977;-86
2023/08/27 06:05:48;;;;;;;26.80;22.07;;;25.70;99.90;;;;;;4817036;29;20457;-79
2023/08/27 06:08:14;;;;;;;24.30;20.40;;;25.80;99.90;;;;;;4817593;29;20966;-86
2023/08/27 06:10:40;;;;;;;27.10;23.10;;;25.80;99.90;;;;;;4816034;29;20552;-86
2023/08/27 06:13:07;;;;;;;31.50;22.33;;;25.90;99.90;;;;;;4815142;29;20189;-86
2023/08/27 06:15:34;;;;;;;23.47;21.13;;;26.00;99.90;;;;;;4800562;29;20279;-87
2023/08/27 06:18:03;;;;;;;24.00;20.87;;;26.10;99.90;;;;;;4815176;29;20798;-80
2023/08/27 06:20:34;;;;;;;25.63;22.00;;;26.20;99.90;;;;;;4815692;29;20639;-86
2023/08/27 06:23:02;;;;;;;23.47;21.07;;;26.30;99.90;;;;;;4814674;29;20512;-80
2023/08/27 06:25:28;;;;;;;26.53;21.70;;;26.40;99.90;;;;;;4815203;29;20445;-81
2023/08/27 06:27:58;;;;;;;24.50;20.00;;;26.50;99.90;;;;;;4814754;29;20804;-81
2023/08/27 06:30:23;;;;;;;24.43;21.93;;;26.60;99.90;;;;;;4815245;29;20540;-81
2023/08/27 06:32:49;;;;;;;24.83;22.17;;;26.70;99.90;;;;;;4814502;29;20432;-87
2023/08/27 06:35:15;;;;;;;26.70;22.57;;;26.80;99.90;;;;;;4815391;29;20291;-80
2023/08/27 06:37:41;;;;;;;26.13;23.43;;;26.90;99.90;;;;;;4814755;29;20731;-80
2023/08/27 06:40:07;;;;;;;25.20;22.50;;;27.00;99.90;;;;;;4831616;29;20225;-87
2023/08/27 06:42:34;;;;;;;26.33;21.10;;;27.10;99.90;;;;;;4816265;29;20198;-87
2023/08/27 06:45:00;;;;;;;27.33;23.00;;;27.20;99.90;;;;;;4816463;29;20661;-82
2023/08/27 06:47:26;;;;;;;26.20;21.90;;;27.30;99.90;;;;;;4817306;29;20714;-86
2023/08/27 06:49:52;;;;;;;23.03;20.73;;;27.40;99.90;;;;;;4817739;29;20457;-80
2023/08/27 06:52:18;;;;;;;23.50;20.77;;;27.50;99.90;;;;;;4817634;29;20579;-80
2023/08/27 06:54:43;;;;;;;28.97;21.97;;;27.60;99.90;;;;;;4817522;29;20204;-86
2023/08/27 06:57:09;;;;;;;24.83;21.23;;;27.80;99.90;;;;;;4817328;29;20438;-81
2023/08/27 06:59:35;;;;;;;23.60;21.30;;;27.90;99.90;;;;;;4817526;29;20202;-86
2023/08/27 07:02:03;;;;;;;20.93;18.73;;;27.90;99.90;;;;;;4815897;29;20198;-80
2023/08/27 07:04:28;;;;;;;23.07;20.03;;;28.00;99.90;;;;;;4831033;29;20541;-80
2023/08/27 07:06:54;;;;;;;22.73;20.00;;;28.10;99.90;;;;;;4816743;29;20948;-86
2023/08/27 07:09:22;;;;;;;22.43;20.23;;;28.20;99.90;;;;;;4816923;29;20696;-87
2023/08/27 07:11:48;;;;;;;27.70;21.03;;;28.30;99.90;;;;;;4816108;29;20191;-86
2023/08/27 07:14:16;;;;;;;21.70;19.70;;;28.40;99.90;;;;;;4816243;29;20475;-85
2023/08/27 07:16:42;;;;;;;20.70;18.63;;;28.40;99.90;;;;;;4815928;29;20529;-87
2023/08/27 07:19:07;;;;;;;21.80;19.60;;;28.50;99.90;;;;;;4815774;29;20502;-80
2023/08/27 07:21:33;;;;;;;22.03;19.67;;;28.60;99.90;;;;;;4815876;29;20208;-81
2023/08/27 07:23:59;;;;;;;22.37;20.00;;;28.70;99.90;;;;;;4815535;29;20221;-81
2023/08/27 07:26:25;;;;;;;22.77;20.33;;;28.80;99.90;;;;;;4815962;29;20634;-86
2023/08/27 07:28:51;;;;;;;23.37;20.83;;;28.90;99.90;;;;;;4814567;29;20783;-80
2023/08/27 07:31:16;;;;;;;22.03;19.83;;;28.90;99.90;;;;;;4815992;29;20607;-81
2023/08/27 07:33:42;;;;;;;22.30;19.97;;;29.00;99.90;;;;;;4815565;29;20189;-82
2023/08/27 07:36:07;;;;;;;21.27;19.17;;;29.10;99.90;;;;;;4817037;29;20203;-86
2023/08/27 07:38:41;;;;;;;22.63;20.23;;;29.10;99.90;;;;;;4815407;29;20285;-86
2023/08/27 07:41:08;;;;;;;22.90;20.70;;;29.20;99.90;;;;;;4815575;29;20229;-80
2023/08/27 07:43:34;;;;;;;22.23;20.03;;;29.30;99.90;;;;;;4816623;29;20483;-87
2023/08/27 07:45:59;;;;;;;22.47;19.97;;;29.40;99.90;;;;;;4815800;29;20533;-80
2023/08/27 07:48:25;;;;;;;21.63;19.63;;;29.50;99.90;;;;;;4815028;29;20418;-87
2023/08/27 07:50:51;;;;;;;21.77;19.43;;;29.50;99.90;;;;;;4814925;29;20417;-81
2023/08/27 07:53:16;;;;;;;23.13;20.37;;;29.60;99.90;;;;;;4815641;29;20213;-81
2023/08/27 07:55:42;;;;;;;20.30;18.17;;;29.70;99.90;;;;;;4815421;29;20396;-84
2023/08/27 07:58:08;;;;;;;22.70;20.37;;;29.70;99.90;;;;;;4816167;29;20589;-87
2023/08/27 08:00:34;;;;;;;22.80;20.40;;;29.80;99.90;;;;;;4815486;29;20292;-86
2023/08/27 08:03:00;;;;;;;19.67;17.57;;;29.90;99.90;;;;;;4816139;29;20605;-86
2023/08/27 08:05:25;;;;;;;20.87;18.70;;;30.00;99.90;;;;;;4817023;29;20213;-87
2023/08/27 08:07:52;;;;;;;20.97;18.83;;;30.10;99.90;;;;;;4814984;29;20312;-81
2023/08/27 08:10:18;;;;;;;20.20;18.20;;;30.20;99.90;;;;;;4814065;29;20215;-80
2023/08/27 08:12:45;;;;;;;19.87;17.80;;;30.30;99.90;;;;;;4816375;29;20440;-86
2023/08/27 08:15:11;;;;;;;21.53;19.43;;;30.40;99.90;;;;;;4815478;29;20437;-81
2023/08/27 08:17:36;;;;;;;24.20;21.70;;;30.50;99.90;;;;;;4816305;29;20463;-86
2023/08/27 08:20:02;;;;;;;22.60;19.17;;;30.60;99.90;;;;;;4815437;29;20503;-86
2023/08/27 08:22:28;;;;;;;19.37;17.50;;;30.70;99.90;;;;;;4816440;29;20578;-86
2023/08/27 08:24:55;;;;;;;18.80;16.50;;;30.80;99.90;;;;;;4816326;29;21067;-81
2023/08/27 08:27:21;;;;;;;20.07;18.07;;;30.90;99.90;;;;;;4814803;29;20959;-86
2023/08/27 08:29:47;;;;;;;20.43;17.80;;;31.00;99.90;;;;;;4814825;29;20895;-86
2023/08/27 08:32:12;;;;;;;18.93;17.13;;;31.20;99.90;;;;;;4816226;29;20517;-80
2023/08/27 08:34:39;;;;;;;19.07;17.07;;;31.20;99.90;;;;;;4819788;29;20208;-81
2023/08/27 08:37:05;;;;;;;19.60;17.50;;;31.30;99.90;;;;;;4819294;29;20351;-80
2023/08/27 08:39:31;;;;;;;18.20;15.73;;;31.50;99.90;;;;;;4817189;29;20447;-81
2023/08/27 08:42:20;;;;;;;16.03;14.40;;;31.60;99.90;;;;;;4819908;29;20524;-84
2023/08/27 08:45:04;;;;;;;16.83;15.17;;;31.80;99.90;;;;;;4807544;29;20310;-86
2023/08/27 08:47:30;;;;;;;17.67;15.83;;;31.90;99.90;;;;;;4831768;29;20741;-81
2023/08/27 08:49:58;;;;;;;18.63;14.77;;;32.10;99.90;;;;;;4817430;29;20429;-80
2023/08/27 08:52:27;;;;;;;16.30;14.60;;;32.30;99.90;;;;;;4831607;29;20453;-80
2023/08/27 08:54:54;;;;;;;15.27;13.80;;;32.80;99.90;;;;;;4831438;29;20445;-81
2023/08/27 08:57:22;;;;;;;16.17;13.97;;;33.10;99.90;;;;;;4822006;29;20449;-86
2023/08/27 08:59:49;;;;;;;15.77;14.37;;;33.30;99.90;;;;;;4818277;29;20436;-84
2023/08/27 09:02:16;;;;;;;16.70;15.30;;;33.40;99.90;;;;;;4833057;29;20493;-81
2023/08/27 09:04:42;;;;;;;14.77;13.37;;;33.50;99.90;;;;;;4819398;29;20477;-81
2023/08/27 09:07:08;;;;;;;14.27;12.73;;;33.50;99.90;;;;;;4832417;29;20833;-82
2023/08/27 09:09:34;;;;;;;15.20;13.60;;;33.60;99.90;;;;;;4805651;29;20637;-86
2023/08/27 09:12:01;;;;;;;15.10;13.67;;;33.60;99.90;;;;;;4798576;29;20488;-85
2023/08/27 09:14:29;;;;;;;14.70;13.23;;;33.70;99.90;;;;;;4800825;29;20424;-85
2023/08/27 09:16:55;;;;;;;17.03;12.53;;;33.70;99.90;;;;;;4798017;29;20585;-81
2023/08/27 09:19:21;;;;;;;16.03;14.53;;;33.80;99.90;;;;;;4800033;29;20567;-81
2023/08/27 09:21:47;;;;;;;15.47;13.20;;;33.90;99.90;;;;;;4798893;29;20191;-85
2023/08/27 09:24:12;;;;;;;17.80;13.57;;;33.90;99.90;;;;;;4798716;29;20605;-81
2023/08/27 09:26:38;;;;;;;14.97;13.37;;;34.00;99.90;;;;;;4800016;29;20489;-86
2023/08/27 09:29:07;;;;;;;15.07;13.47;;;34.10;99.90;;;;;;4798932;29;20183;-82
2023/08/27 09:31:44;;;;;;;13.80;12.37;;;34.20;99.90;;;;;;4816559;29;20227;-81
2023/08/27 09:34:12;;;;;;;14.37;12.77;;;34.20;99.90;;;;;;4831911;29;20922;-86
2023/08/27 09:36:38;;;;;;;17.37;15.40;;;34.30;99.90;;;;;;4805809;29;20469;-81
2023/08/27 09:39:12;;;;;;;14.47;12.70;;;34.40;99.50;;;;;;4816255;29;20429;-80
2023/08/27 09:41:42;;;;;;;14.43;13.07;;;34.50;99.70;;;;;;4816816;29;20457;-85
2023/08/27 09:44:08;;;;;;;17.50;13.83;;;34.60;99.10;;;;;;4815640;29;20485;-81
2023/08/27 09:46:36;;;;;;;26.37;13.63;;;34.60;98.50;;;;;;4817385;29;20444;-85
2023/08/27 09:49:06;;;;;;;14.10;12.70;;;34.70;97.90;;;;;;4815211;29;20502;-85
2023/08/27 09:51:33;;;;;;;14.27;12.13;;;34.70;97.90;;;;;;4816421;29;20438;-86
2023/08/27 09:53:59;;;;;;;14.33;12.03;;;34.80;97.50;;;;;;4815103;29;20421;-81
2023/08/27 09:56:27;;;;;;;13.37;11.77;;;34.80;97.20;;;;;;4815268;29;20553;-85
2023/08/27 09:58:54;;;;;;;13.70;12.17;;;34.80;97.40;;;;;;4814981;29;20424;-85
2023/08/27 10:01:32;;;;;;;16.63;11.80;;;34.80;97.00;;;;;;4813960;29;20548;-81
2023/08/27 10:04:03;;;;;;;14.23;11.70;;;34.90;96.80;;;;;;4814627;29;20507;-81
2023/08/27 10:06:34;;;;;;;13.23;11.87;;;35.00;96.40;;;;;;4815145;29;20676;-85
2023/08/27 10:09:00;;;;;;;14.50;11.27;;;35.10;96.10;;;;;;4815218;29;20414;-81
2023/08/27 10:11:26;;;;;;;11.73;10.50;;;35.10;95.50;;;;;;4814933;29;20754;-85
2023/08/27 10:13:52;;;;;;;11.73;9.93;;;35.20;95.30;;;;;;4815016;29;20210;-81
2023/08/27 10:16:19;;;;;;;11.37;10.30;;;35.20;95.00;;;;;;4815871;29;21014;-85
2023/08/27 10:18:46;;;;;;;13.20;10.50;;;35.30;94.90;;;;;;4815156;29;20425;-85
2023/08/27 10:21:12;;;;;;;11.17;9.80;;;35.40;94.80;;;;;;4815323;29;20456;-85
2023/08/27 10:23:39;;;;;;;10.90;9.70;;;35.40;94.30;;;;;;4815203;29;20914;-86
2023/08/27 10:26:05;;;;;;;10.83;9.83;;;35.50;93.60;;;;;;4816031;29;20216;-86
2023/08/27 10:28:35;;;;;;;10.20;9.30;;;35.50;93.70;;;;;;4816227;29;20707;-81
2023/08/27 10:31:01;;;;;;;11.67;9.27;;;35.50;93.10;;;;;;4816315;29;20448;-85
2023/08/27 10:33:27;;;;;;;9.13;8.23;;;35.50;93.20;;;;;;4814961;29;20429;-86
2023/08/27 10:35:54;;;;;;;9.20;8.30;;;35.60;92.00;;;;;;4816666;29;20434;-81
2023/08/27 10:38:25;;;;;;;11.70;9.90;;;35.60;92.50;;;;;;4815147;29;20982;-80
2023/08/27 10:40:51;;;;;;;11.70;9.20;;;35.70;92.40;;;;;;4816923;29;20434;-81
2023/08/27 10:43:19;;;;;;;10.00;9.10;;;35.80;93.10;;;;;;4816785;29;20484;-81
2023/08/27 10:45:46;;;;;;;10.57;9.07;;;35.80;91.90;;;;;;4816453;29;20505;-86
2023/08/27 10:48:17;;;;;;;12.60;9.67;;;35.90;91.40;;;;;;4816333;29;20770;-86
2023/08/27 10:50:50;;;;;;;12.30;9.63;;;35.80;91.70;;;;;;4831066;29;20669;-82
2023/08/27 10:53:20;;;;;;;14.00;10.20;;;35.90;91.80;;;;;;4816242;29;20540;-81
2023/08/27 10:55:51;;;;;;;13.00;8.77;;;36.00;91.50;;;;;;4816897;29;20469;-85
2023/08/27 10:58:21;;;;;;;14.23;9.30;;;36.10;91.40;;;;;;4816072;29;20452;-85
2023/08/27 11:01:07;;;;;;;12.70;9.10;;;36.20;90.80;;;;;;4816112;29;20457;-86
2023/08/27 11:03:57;;;;;;;13.13;8.50;;;36.30;89.30;;;;;;4815839;29;20481;-85
2023/08/27 11:06:40;;;;;;;8.70;7.83;;;36.40;88.30;;;;;;4817347;29;20436;-80
2023/08/27 11:09:14;;;;;;;10.70;8.67;;;36.50;89.50;;;;;;4830873;29;20609;-81
2023/08/27 11:11:48;;;;;;;13.37;9.07;;;36.50;88.80;;;;;;4817462;29;20429;-82
2023/08/27 11:14:16;;;;;;;9.87;8.73;;;36.50;87.30;;;;;;4815764;29;20422;-81
2023/08/27 11:16:45;;;;;;;9.47;8.40;;;36.50;86.50;;;;;;4814984;29;20461;-81
2023/08/27 11:19:12;;;;;;;8.87;8.07;;;36.50;87.70;;;;;;4816162;29;20448;-86
2023/08/27 11:21:37;;;;;;;9.43;8.57;;;36.50;87.50;;;;;;4815929;29;20677;-86
2023/08/27 11:24:26;;;;;;;9.47;7.47;;;36.60;87.30;;;;;;4830601;29;20487;-84
2023/08/27 11:26:53;;;;;;;9.70;8.60;;;36.60;85.30;;;;;;4815639;29;20198;-81
2023/08/27 11:29:23;;;;;;;8.93;7.53;;;36.70;86.20;;;;;;4816895;29;20415;-81
2023/08/27 11:31:49;;;;;;;9.77;7.60;;;36.70;85.30;;;;;;4815081;29;20430;-86
2023/08/27 11:34:15;;;;;;;10.97;8.60;;;36.80;85.00;;;;;;4816476;29;20425;-81
2023/08/27 11:36:47;;;;;;;12.70;9.40;;;36.80;84.90;;;;;;4816770;29;20197;-86
2023/08/27 11:39:14;;;;;;;9.03;8.13;;;36.90;85.50;;;;;;4817019;29;20443;-81
2023/08/27 11:41:41;;;;;;;10.40;7.60;;;36.90;84.70;;;;;;4816834;29;20751;-81
2023/08/27 11:44:10;;;;;;;10.13;8.60;;;36.90;83.90;;;;;;4816260;29;20646;-86
2023/08/27 11:46:36;;;;;;;13.50;8.07;;;37.00;82.70;;;;;;4814166;29;20524;-81
2023/08/27 11:49:02;;;;;;;9.83;8.43;;;37.00;82.80;;;;;;4813516;29;20426;-82
2023/08/27 11:51:28;;;;;;;11.60;8.00;;;37.00;83.00;;;;;;4813728;29;20605;-86
2023/08/27 11:53:54;;;;;;;9.20;8.37;;;37.00;83.30;;;;;;4813885;29;20552;-81
2023/08/27 11:56:20;;;;;;;9.77;8.10;;;37.00;84.20;;;;;;4815170;29;20245;-85
2023/08/27 11:58:52;;;;;;;18.00;10.23;;;37.00;83.60;;;;;;4813746;29;20201;-85
2023/08/27 12:01:22;;;;;;;12.33;8.00;;;37.00;84.70;;;;;;4815160;29;20457;-82
2023/08/27 12:03:48;;;;;;;10.43;7.93;;;37.00;84.70;;;;;;4816190;29;21206;-81
2023/08/27 12:06:19;;;;;;;10.73;7.93;;;37.00;82.60;;;;;;4816176;29;20509;-81
2023/08/27 12:08:50;;;;;;;10.43;7.80;;;37.00;82.30;;;;;;4816716;29;20437;-85
2023/08/27 12:11:18;;;;;;;11.40;8.10;;;37.10;81.90;;;;;;4817372;29;20594;-86
2023/08/27 12:13:47;;;;;;;10.23;8.30;;;37.10;81.60;;;;;;4815738;29;20860;-86
2023/08/27 12:16:14;;;;;;;10.90;8.43;;;37.10;81.50;;;;;;4816403;29;20445;-81
2023/08/27 12:18:47;;;;;;;9.07;8.00;;;37.10;81.90;;;;;;4817347;29;20712;-85
2023/08/27 12:21:13;;;;;;;11.47;8.40;;;37.10;82.50;;;;;;4816997;29;20537;-85
2023/08/27 12:23:38;;;;;;;13.70;7.77;;;37.10;81.80;;;;;;4817756;29;20576;-84
2023/08/27 12:26:04;;;;;;;11.10;8.13;;;37.20;81.70;;;;;;4816351;29;20666;-85
2023/08/27 12:28:33;;;;;;;9.00;8.10;;;37.20;82.10;;;;;;4816247;29;20221;-82